GCN weather

Grand Canyon National Park Airport
Grand Canyon, Arizona, United States

Public forecast

Using degrees Fahrenheit for public forecast. Weather courtesy of forecast.io.

Current aviation weather report (METAR) for Grand Canyon National Park Airport

Retrieved 2020/06/05 14:54 UTC (46 minutes ago):

KGCN 051454Z AUTO 00000KT 10SM CLR 23/06 A3012 RMK AO2 SLP076 T02330056 50002

Aviation forecast (TAF) for Grand Canyon National Park Airport

Retrieved 2020/06/05 12:42 UTC (3 hours ago):

TAF KGCN 051140Z 0512/0612 VRB06KT P6SM SCT250 FM051700 17016G25KT P6SM BKN250 FM052300 19020G33KT P6SM SCT090 BKN200 FM060200 16011KT P6SM FEW050 BKN080 PROB30 0606/0612 5SM TSRA OVC025CB